Time;durP1;ratioP1;P1;durP2;ratioP2;P2;SDS_P1;SDS_P2;PMS_P1;PMS_P2;Temp;Humidity;BMP_temperature;BMP_pressure;BME280_temperature;BME280_humidity;BME280_pressure;Samples;Min_cycle;Max_cycle;Signal;HPM_P1;HPM_P2
2023/04/21 00:01:43;;;;;;;23.38;18.20;;;8.20;99.90;;;;;;4988803;28;20029;-72
2023/04/21 00:04:12;;;;;;;31.88;22.30;;;8.20;99.90;;;;;;4994856;28;20600;-74
2023/04/21 00:06:40;;;;;;;27.90;19.65;;;8.20;99.90;;;;;;4976002;28;20040;-75
2023/04/21 00:09:07;;;;;;;25.55;18.02;;;8.20;99.90;;;;;;4986091;28;20436;-74
2023/04/21 00:11:33;;;;;;;27.83;20.30;;;8.20;99.90;;;;;;4961928;28;20045;-75
2023/04/21 00:14:00;;;;;;;27.80;20.13;;;8.20;99.90;;;;;;5017267;28;20040;-75
2023/04/21 00:16:26;;;;;;;26.60;19.98;;;8.20;99.90;;;;;;4984891;28;20038;-75
2023/04/21 00:18:52;;;;;;;29.88;20.52;;;8.20;99.90;;;;;;4985472;28;20033;-75
2023/04/21 00:21:19;;;;;;;24.10;16.98;;;8.20;99.90;;;;;;4982857;28;20041;-76
2023/04/21 00:23:46;;;;;;;33.58;22.52;;;8.20;99.90;;;;;;4996211;28;20045;-75
2023/04/21 00:26:12;;;;;;;26.92;20.30;;;8.20;99.90;;;;;;4992060;28;20437;-74
2023/04/21 00:28:42;;;;;;;22.27;16.55;;;8.30;99.90;;;;;;5002851;28;20297;-75
2023/04/21 00:31:08;;;;;;;18.88;13.10;;;8.30;99.90;;;;;;4978699;28;20036;-73
2023/04/21 00:33:34;;;;;;;22.63;15.55;;;8.30;99.90;;;;;;4973796;28;20042;-75
2023/04/21 00:36:00;;;;;;;14.95;11.55;;;8.30;99.90;;;;;;4970047;28;20052;-75
2023/04/21 00:38:27;;;;;;;18.05;13.27;;;8.30;99.90;;;;;;4955178;28;20384;-74
2023/04/21 00:40:53;;;;;;;20.00;14.05;;;8.20;99.90;;;;;;4982759;28;20054;-75
2023/04/21 00:43:20;;;;;;;20.98;13.90;;;8.30;99.90;;;;;;4995829;28;20069;-75
2023/04/21 00:45:46;;;;;;;20.48;15.88;;;8.30;99.90;;;;;;4994214;28;20846;-75
2023/04/21 00:48:12;;;;;;;24.23;17.80;;;8.20;99.90;;;;;;4956180;28;20041;-76
2023/04/21 00:50:39;;;;;;;19.10;14.18;;;8.20;99.90;;;;;;4978461;28;20408;-75
2023/04/21 00:53:06;;;;;;;22.02;15.30;;;8.30;99.90;;;;;;5003972;28;20401;-75
2023/04/21 00:55:33;;;;;;;25.50;18.48;;;8.30;99.90;;;;;;5001133;28;20041;-73
2023/04/21 00:58:01;;;;;;;24.30;17.23;;;8.30;99.90;;;;;;4986523;28;20499;-73
2023/04/21 01:00:27;;;;;;;30.10;19.77;;;8.30;99.90;;;;;;4965126;28;20068;-73
2023/04/21 01:02:54;;;;;;;18.40;15.10;;;8.30;99.90;;;;;;4995028;28;20037;-73
2023/04/21 01:05:21;;;;;;;36.75;25.17;;;8.20;99.90;;;;;;4977428;28;20041;-74
2023/04/21 01:07:49;;;;;;;27.15;19.35;;;8.20;99.90;;;;;;4986726;28;20477;-74
2023/04/21 01:10:15;;;;;;;22.85;17.65;;;8.20;99.90;;;;;;4977621;28;20037;-74
2023/04/21 01:12:45;;;;;;;21.85;15.27;;;8.20;99.90;;;;;;4983157;28;20061;-74
2023/04/21 01:15:14;;;;;;;22.05;16.40;;;8.20;99.90;;;;;;4985344;28;20052;-74
2023/04/21 01:17:41;;;;;;;41.17;28.88;;;8.20;99.90;;;;;;4970827;28;20045;-74
2023/04/21 01:20:10;;;;;;;30.83;21.75;;;8.20;99.90;;;;;;4985733;28;20036;-75
2023/04/21 01:22:38;;;;;;;32.13;22.70;;;8.20;99.90;;;;;;4995423;28;20029;-74
2023/04/21 01:25:06;;;;;;;40.83;28.13;;;8.20;99.90;;;;;;4993814;28;20037;-75
2023/04/21 01:27:32;;;;;;;36.97;25.48;;;8.20;99.90;;;;;;4969710;28;20033;-74
2023/04/21 01:29:58;;;;;;;35.67;25.17;;;8.20;99.90;;;;;;5014170;28;20041;-75
2023/04/21 01:32:28;;;;;;;30.10;22.05;;;8.20;99.90;;;;;;4984158;28;20040;-75
2023/04/21 01:34:56;;;;;;;37.35;25.88;;;8.20;99.90;;;;;;4986186;28;20033;-74
2023/04/21 01:37:26;;;;;;;33.35;22.48;;;8.30;99.90;;;;;;4985752;28;20044;-74
2023/04/21 01:39:55;;;;;;;30.90;22.50;;;8.30;99.90;;;;;;4987967;28;20865;-74
2023/04/21 01:42:25;;;;;;;29.80;21.23;;;8.30;99.90;;;;;;4958538;28;20046;-75
2023/04/21 01:44:52;;;;;;;35.13;22.83;;;8.30;99.90;;;;;;4976776;28;20040;-75
2023/04/21 01:47:19;;;;;;;31.65;21.88;;;8.30;99.90;;;;;;5018752;28;20041;-74
2023/04/21 01:49:46;;;;;;;30.88;21.80;;;8.30;99.90;;;;;;4998174;28;20046;-75
2023/04/21 01:52:12;;;;;;;34.28;23.42;;;8.30;99.90;;;;;;4982545;28;20229;-75
2023/04/21 01:54:39;;;;;;;32.10;22.98;;;8.30;99.90;;;;;;4987806;28;20033;-75
2023/04/21 01:57:06;;;;;;;35.28;24.30;;;8.40;99.90;;;;;;5018017;28;20472;-74
2023/04/21 01:59:33;;;;;;;37.95;26.08;;;8.40;99.90;;;;;;4954686;28;20041;-74
2023/04/21 02:02:02;;;;;;;45.33;29.75;;;8.40;99.90;;;;;;4975810;28;20438;-74
2023/04/21 02:04:28;;;;;;;41.95;28.52;;;8.40;99.90;;;;;;4995870;28;20489;-74
2023/04/21 02:06:54;;;;;;;40.85;27.13;;;8.40;99.90;;;;;;4969946;28;20826;-74
2023/04/21 02:09:21;;;;;;;39.88;25.92;;;8.40;99.90;;;;;;4983247;28;20851;-75
2023/04/21 02:11:47;;;;;;;39.20;26.15;;;8.40;99.90;;;;;;4980325;28;20037;-75
2023/04/21 02:14:13;;;;;;;42.15;27.95;;;8.40;99.90;;;;;;4985375;28;20046;-74
2023/04/21 02:16:40;;;;;;;53.75;33.75;;;8.40;99.90;;;;;;4971325;28;20708;-75
2023/04/21 02:19:06;;;;;;;48.08;31.98;;;8.40;99.90;;;;;;4970734;28;20029;-75
2023/04/21 02:21:32;;;;;;;45.90;32.35;;;8.40;99.90;;;;;;4986207;28;20028;-75
2023/04/21 02:23:59;;;;;;;41.72;28.02;;;8.40;99.90;;;;;;4995661;28;20460;-75
2023/04/21 02:26:26;;;;;;;40.05;27.40;;;8.40;99.90;;;;;;4991343;28;20033;-75
2023/04/21 02:28:52;;;;;;;44.72;29.08;;;8.40;99.90;;;;;;5018476;28;20037;-75
2023/04/21 02:31:19;;;;;;;44.78;29.58;;;8.40;99.90;;;;;;4980448;28;23914;-75
2023/04/21 02:33:45;;;;;;;45.40;30.33;;;8.50;99.90;;;;;;4970214;28;20037;-75
2023/04/21 02:36:11;;;;;;;41.78;28.95;;;8.50;99.90;;;;;;4987540;28;20499;-75
2023/04/21 02:38:38;;;;;;;60.40;39.88;;;8.50;99.90;;;;;;4991195;28;20068;-75
2023/04/21 02:41:04;;;;;;;65.03;41.97;;;8.40;99.90;;;;;;4983896;28;20033;-75
2023/04/21 02:43:30;;;;;;;59.00;38.05;;;8.40;99.90;;;;;;4995795;28;20041;-75
2023/04/21 02:45:57;;;;;;;55.00;36.50;;;8.40;99.90;;;;;;4994834;28;20396;-75
2023/04/21 02:48:23;;;;;;;53.78;35.97;;;8.40;99.90;;;;;;4986917;28;20038;-75
2023/04/21 02:50:54;;;;;;;51.25;33.65;;;8.40;99.90;;;;;;4980219;28;20065;-75
2023/04/21 02:53:21;;;;;;;59.10;37.08;;;8.40;99.90;;;;;;5000652;28;21624;-75
2023/04/21 02:55:47;;;;;;;58.13;39.13;;;8.30;99.90;;;;;;4986919;28;20045;-75
2023/04/21 02:58:14;;;;;;;62.72;39.72;;;8.30;99.90;;;;;;4972241;28;20034;-76
2023/04/21 03:00:41;;;;;;;61.55;40.47;;;8.30;99.90;;;;;;4988269;28;20037;-75
2023/04/21 03:03:07;;;;;;;56.50;36.88;;;8.30;99.90;;;;;;4998649;28;20938;-76
2023/04/21 03:05:34;;;;;;;54.97;36.67;;;8.30;99.90;;;;;;4997660;28;20046;-76
2023/04/21 03:08:01;;;;;;;54.75;35.58;;;8.30;99.90;;;;;;4987501;28;20037;-75
2023/04/21 03:10:27;;;;;;;61.40;38.65;;;8.30;99.90;;;;;;4980580;28;20036;-75
2023/04/21 03:12:55;;;;;;;64.13;39.75;;;8.30;99.90;;;;;;4986809;28;20045;-75
2023/04/21 03:15:21;;;;;;;57.53;38.45;;;8.30;99.90;;;;;;4987287;28;20064;-76
2023/04/21 03:17:48;;;;;;;60.40;39.47;;;8.40;99.90;;;;;;4989879;28;20029;-75
2023/04/21 03:20:14;;;;;;;69.90;44.88;;;8.40;99.90;;;;;;4987313;28;20512;-75
2023/04/21 03:22:41;;;;;;;55.13;37.58;;;8.40;99.90;;;;;;5011304;28;20044;-75
2023/04/21 03:25:07;;;;;;;66.03;41.35;;;8.40;99.90;;;;;;5009543;28;20067;-74
2023/04/21 03:27:34;;;;;;;61.75;40.63;;;8.40;99.90;;;;;;4987261;28;20463;-74
2023/04/21 03:30:00;;;;;;;64.03;40.97;;;8.40;99.90;;;;;;4981081;28;20571;-75
2023/04/21 03:32:27;;;;;;;67.25;44.40;;;8.40;99.90;;;;;;4969033;28;20030;-74
2023/04/21 03:34:53;;;;;;;63.83;40.83;;;8.40;99.90;;;;;;4988400;28;20405;-74
2023/04/21 03:37:20;;;;;;;80.57;50.05;;;8.40;99.90;;;;;;5002480;28;20030;-75
2023/04/21 03:39:46;;;;;;;69.47;45.45;;;8.40;99.90;;;;;;4991138;28;21434;-75
2023/04/21 03:42:13;;;;;;;72.20;46.40;;;8.30;99.90;;;;;;4977788;28;20041;-74
2023/04/21 03:44:39;;;;;;;74.35;47.03;;;8.30;99.90;;;;;;5009611;28;20577;-74
2023/04/21 03:47:05;;;;;;;65.32;41.35;;;8.30;99.90;;;;;;4971462;28;20037;-74
2023/04/21 03:49:35;;;;;;;73.85;46.78;;;8.30;99.90;;;;;;4985652;28;20053;-74
2023/04/21 03:52:01;;;;;;;78.70;50.10;;;8.40;99.90;;;;;;4981665;28;20045;-75
2023/04/21 03:54:28;;;;;;;79.53;48.33;;;8.30;99.90;;;;;;4971518;28;20034;-75
2023/04/21 03:56:54;;;;;;;91.85;55.53;;;8.30;99.90;;;;;;4987563;28;20037;-73
2023/04/21 03:59:20;;;;;;;73.97;48.10;;;8.40;99.90;;;;;;5006961;28;20017;-74
2023/04/21 04:01:46;;;;;;;93.70;54.72;;;8.30;99.90;;;;;;4972572;28;20049;-74
2023/04/21 04:04:13;;;;;;;79.32;48.10;;;8.40;99.90;;;;;;4975079;28;20504;-74
2023/04/21 04:06:39;;;;;;;88.10;52.55;;;8.40;99.90;;;;;;4971460;28;20041;-74
2023/04/21 04:09:07;;;;;;;84.43;51.70;;;8.40;99.90;;;;;;5002872;28;20437;-74
2023/04/21 04:11:33;;;;;;;94.57;56.67;;;8.40;99.90;;;;;;4979631;28;20128;-74
2023/04/21 04:14:00;;;;;;;95.35;58.15;;;8.40;99.90;;;;;;4988793;28;20044;-75
2023/04/21 04:16:27;;;;;;;98.68;59.15;;;8.40;99.90;;;;;;5020780;28;20021;-74
2023/04/21 04:18:54;;;;;;;83.85;52.83;;;8.40;99.90;;;;;;4963532;28;20389;-74
2023/04/21 04:21:20;;;;;;;82.63;50.08;;;8.40;99.90;;;;;;4987799;28;20393;-74
2023/04/21 04:23:48;;;;;;;82.95;51.95;;;8.40;99.90;;;;;;4976195;28;20503;-74
2023/04/21 04:26:15;;;;;;;80.60;50.30;;;8.50;99.90;;;;;;4988456;28;20036;-74
2023/04/21 04:28:41;;;;;;;79.53;48.97;;;8.50;99.90;;;;;;4989042;28;20048;-74
2023/04/21 04:31:07;;;;;;;98.88;60.88;;;8.50;99.90;;;;;;4963477;28;20041;-74
2023/04/21 04:33:33;;;;;;;89.07;55.30;;;8.50;99.90;;;;;;4971156;28;20120;-74
2023/04/21 04:36:00;;;;;;;93.10;57.03;;;8.50;99.90;;;;;;4973616;28;20400;-74
2023/04/21 04:38:27;;;;;;;94.55;58.83;;;8.50;99.90;;;;;;4996855;28;20533;-74
2023/04/21 04:40:54;;;;;;;109.65;66.28;;;8.50;99.90;;;;;;4988079;28;20751;-74
2023/04/21 04:43:20;;;;;;;102.22;63.30;;;8.50;99.90;;;;;;4972628;28;20029;-74
2023/04/21 04:45:47;;;;;;;99.45;60.67;;;8.50;99.90;;;;;;4987977;28;20621;-73
2023/04/21 04:48:13;;;;;;;97.57;60.45;;;8.50;99.90;;;;;;4987079;28;20052;-73
2023/04/21 04:50:40;;;;;;;108.00;65.10;;;8.60;99.90;;;;;;4963388;28;20056;-74
2023/04/21 04:53:06;;;;;;;103.97;64.85;;;8.50;99.90;;;;;;4990264;28;20040;-74
2023/04/21 04:55:32;;;;;;;106.35;64.45;;;8.60;99.90;;;;;;4989854;28;21305;-74
2023/04/21 04:58:00;;;;;;;106.40;63.50;;;8.60;99.90;;;;;;4996314;28;20033;-74
2023/04/21 05:00:27;;;;;;;91.72;57.55;;;8.60;99.90;;;;;;4986415;28;20883;-74
2023/04/21 05:02:54;;;;;;;97.60;59.22;;;8.60;99.90;;;;;;4986847;28;20037;-74
2023/04/21 05:05:20;;;;;;;93.60;57.38;;;8.60;99.90;;;;;;4987813;28;20116;-74
2023/04/21 05:07:47;;;;;;;90.47;56.80;;;8.60;99.90;;;;;;4985416;28;20049;-74
2023/04/21 05:10:13;;;;;;;101.50;61.75;;;8.60;99.90;;;;;;4980659;28;20032;-74
2023/04/21 05:12:39;;;;;;;91.18;55.22;;;8.60;99.90;;;;;;4988406;28;20476;-74
2023/04/21 05:15:06;;;;;;;94.13;55.47;;;8.60;99.90;;;;;;4988422;28;20037;-74
2023/04/21 05:17:33;;;;;;;95.30;58.00;;;8.60;99.90;;;;;;4994996;28;20033;-74
2023/04/21 05:19:59;;;;;;;100.30;60.80;;;8.60;99.90;;;;;;4987485;28;20388;-74
2023/04/21 05:22:26;;;;;;;89.97;56.13;;;8.60;99.90;;;;;;4984849;28;20041;-75
2023/04/21 05:24:52;;;;;;;91.20;56.90;;;8.60;99.90;;;;;;4985775;28;20042;-74
2023/04/21 05:27:18;;;;;;;98.72;59.10;;;8.70;99.90;;;;;;5017602;28;20030;-74
2023/04/21 05:29:45;;;;;;;92.80;57.67;;;8.70;99.90;;;;;;5011671;28;20045;-74
2023/04/21 05:32:11;;;;;;;84.85;52.95;;;8.70;99.90;;;;;;4984670;28;20037;-74
2023/04/21 05:34:38;;;;;;;92.55;56.83;;;8.70;99.90;;;;;;5017770;28;20368;-74
2023/04/21 05:37:04;;;;;;;82.80;52.85;;;8.80;99.90;;;;;;4994743;28;20439;-74
2023/04/21 05:39:30;;;;;;;84.30;54.15;;;8.80;99.90;;;;;;4992477;28;20029;-74
2023/04/21 05:41:57;;;;;;;83.40;52.35;;;8.80;99.90;;;;;;4982480;28;20372;-74
2023/04/21 05:44:24;;;;;;;89.25;57.75;;;8.80;99.90;;;;;;4986365;28;20400;-74
2023/04/21 05:46:50;;;;;;;78.32;52.50;;;8.80;99.90;;;;;;4987041;28;20036;-74
2023/04/21 05:49:17;;;;;;;90.32;60.40;;;8.90;99.90;;;;;;4952045;28;20060;-74
2023/04/21 05:51:43;;;;;;;90.18;58.25;;;8.90;99.90;;;;;;4962840;28;20044;-75
2023/04/21 05:54:09;;;;;;;84.40;54.08;;;8.90;99.90;;;;;;4987586;28;20444;-74
2023/04/21 05:56:36;;;;;;;95.40;57.58;;;8.90;99.90;;;;;;4995696;28;20017;-74
2023/04/21 05:59:02;;;;;;;84.55;54.40;;;9.00;99.90;;;;;;4992277;28;20025;-75
2023/04/21 06:01:29;;;;;;;85.15;58.67;;;9.00;99.90;;;;;;5009564;28;20034;-75
2023/04/21 06:03:56;;;;;;;85.60;56.08;;;9.00;99.90;;;;;;4984732;28;20918;-75
2023/04/21 06:06:22;;;;;;;72.82;51.05;;;9.00;99.90;;;;;;4985130;28;20343;-75
2023/04/21 06:08:48;;;;;;;75.07;49.45;;;9.10;99.90;;;;;;4986060;28;20061;-75
2023/04/21 06:11:15;;;;;;;81.78;53.70;;;9.10;99.90;;;;;;4977822;28;20044;-75
2023/04/21 06:13:41;;;;;;;85.18;53.80;;;9.20;99.90;;;;;;4991630;28;20021;-74
2023/04/21 06:16:07;;;;;;;86.18;57.13;;;9.20;99.90;;;;;;4978801;28;20053;-78
2023/04/21 06:18:33;;;;;;;81.20;52.92;;;9.30;99.90;;;;;;4996182;28;20037;-75
2023/04/21 06:21:00;;;;;;;77.43;53.08;;;9.30;99.90;;;;;;4961626;28;20571;-74
2023/04/21 06:23:26;;;;;;;81.88;54.63;;;9.30;99.90;;;;;;4983940;28;20034;-74
2023/04/21 06:26:04;;;;;;;73.53;47.75;;;9.40;99.90;;;;;;4987230;28;20037;-75
2023/04/21 06:28:34;;;;;;;77.80;51.65;;;9.40;99.90;;;;;;4985213;28;20446;-74
2023/04/21 06:31:02;;;;;;;74.00;48.72;;;9.40;99.90;;;;;;4976802;28;20038;-74
2023/04/21 06:33:29;;;;;;;83.63;57.03;;;9.50;99.90;;;;;;4991821;28;20034;-75
2023/04/21 06:35:55;;;;;;;76.53;52.70;;;9.50;99.90;;;;;;4997087;28;20052;-74
2023/04/21 06:38:22;;;;;;;83.55;54.20;;;9.60;99.90;;;;;;4999366;28;20034;-74
2023/04/21 06:40:49;;;;;;;73.32;51.30;;;9.60;99.90;;;;;;4967602;28;20917;-74
2023/04/21 06:43:15;;;;;;;72.22;48.88;;;9.70;99.90;;;;;;4989764;28;20026;-74
2023/04/21 06:45:41;;;;;;;74.70;52.03;;;9.70;99.90;;;;;;4990859;28;20029;-74
2023/04/21 06:48:08;;;;;;;77.95;52.95;;;9.90;99.90;;;;;;4990003;28;20033;-75
2023/04/21 06:50:34;;;;;;;74.13;52.53;;;10.00;99.90;;;;;;4979700;28;20044;-75
2023/04/21 06:53:00;;;;;;;76.10;53.30;;;10.10;99.90;;;;;;4972902;28;20052;-74
2023/04/21 06:55:27;;;;;;;76.65;53.33;;;10.20;99.90;;;;;;4995119;28;20495;-74
2023/04/21 06:57:53;;;;;;;66.95;49.70;;;10.40;99.90;;;;;;4998305;28;20022;-74
2023/04/21 07:00:20;;;;;;;64.45;46.63;;;10.50;99.90;;;;;;4984884;28;20046;-74
2023/04/21 07:02:46;;;;;;;64.57;48.95;;;10.50;99.90;;;;;;4987761;28;20052;-74
2023/04/21 07:05:12;;;;;;;61.85;45.70;;;10.50;99.90;;;;;;4986395;28;20041;-74
2023/04/21 07:07:38;;;;;;;58.95;44.10;;;10.50;99.90;;;;;;4988030;28;20033;-74
2023/04/21 07:10:06;;;;;;;62.05;47.92;;;10.40;99.90;;;;;;4980138;28;20045;-74
2023/04/21 07:12:32;;;;;;;66.90;48.22;;;10.50;99.90;;;;;;4987532;28;20032;-74
2023/04/21 07:14:58;;;;;;;68.20;51.90;;;10.40;99.90;;;;;;4977935;28;20893;-74
2023/04/21 07:17:25;;;;;;;67.28;47.92;;;10.40;99.90;;;;;;4996283;28;20052;-74
2023/04/21 07:19:51;;;;;;;58.90;44.78;;;10.40;99.90;;;;;;4972910;28;20523;-74
2023/04/21 07:22:17;;;;;;;63.88;47.45;;;10.50;99.90;;;;;;4983791;28;20522;-74
2023/04/21 07:24:44;;;;;;;58.30;44.85;;;10.40;99.90;;;;;;4971187;28;20372;-74
2023/04/21 07:27:10;;;;;;;63.00;46.75;;;10.50;99.90;;;;;;4987755;28;20550;-75
2023/04/21 07:29:36;;;;;;;61.55;46.85;;;10.50;99.90;;;;;;4983495;28;20045;-74
2023/04/21 07:32:03;;;;;;;60.95;49.13;;;10.50;99.90;;;;;;4953339;28;20042;-74
2023/04/21 07:34:29;;;;;;;67.80;51.00;;;10.60;99.90;;;;;;4999094;28;20424;-75
2023/04/21 07:36:55;;;;;;;57.22;45.47;;;10.60;99.90;;;;;;4997158;28;20469;-74
2023/04/21 07:39:22;;;;;;;58.90;44.63;;;10.70;99.90;;;;;;4988049;28;20041;-74
2023/04/21 07:41:48;;;;;;;62.47;47.45;;;10.80;99.90;;;;;;4979506;28;20038;-74
2023/04/21 07:44:14;;;;;;;61.88;48.13;;;10.80;99.90;;;;;;4987235;28;20021;-76
2023/04/21 07:46:40;;;;;;;60.55;47.13;;;10.90;99.90;;;;;;4988792;28;20038;-74
2023/04/21 07:49:07;;;;;;;60.42;47.75;;;10.90;99.90;;;;;;4986190;28;20033;-78
2023/04/21 07:51:33;;;;;;;66.28;48.75;;;10.90;99.90;;;;;;4981416;28;20048;-76
2023/04/21 07:54:00;;;;;;;54.70;42.90;;;11.00;99.90;;;;;;4988311;28;20041;-77
2023/04/21 07:56:26;;;;;;;55.95;42.42;;;11.00;99.90;;;;;;4997444;28;20035;-78
2023/04/21 07:58:52;;;;;;;56.55;43.97;;;11.10;99.90;;;;;;4995821;28;20030;-74
2023/04/21 08:01:19;;;;;;;55.13;43.53;;;11.20;99.90;;;;;;4968605;28;20041;-75
2023/04/21 08:03:46;;;;;;;58.60;44.65;;;11.30;99.90;;;;;;4986312;28;23162;-76
2023/04/21 08:06:12;;;;;;;59.33;46.17;;;11.30;99.90;;;;;;4986726;28;20022;-75
2023/04/21 08:08:38;;;;;;;54.20;44.10;;;11.40;99.90;;;;;;4986969;28;20040;-76
2023/04/21 08:11:04;;;;;;;52.33;41.70;;;11.40;99.90;;;;;;4980870;28;20040;-75
2023/04/21 08:13:31;;;;;;;54.05;43.30;;;11.50;99.90;;;;;;4989664;28;20037;-75
2023/04/21 08:15:57;;;;;;;50.53;40.80;;;11.50;99.90;;;;;;4992022;28;20489;-78
2023/04/21 08:18:23;;;;;;;56.60;44.53;;;11.60;99.90;;;;;;4996100;28;20037;-77
2023/04/21 08:20:51;;;;;;;51.38;42.25;;;11.70;99.90;;;;;;4987009;28;20036;-76
2023/04/21 08:23:18;;;;;;;50.80;39.35;;;11.70;99.90;;;;;;5018410;28;20041;-76
2023/04/21 08:25:45;;;;;;;48.17;38.65;;;11.70;99.90;;;;;;4987344;28;20038;-75
2023/04/21 08:28:11;;;;;;;54.55;43.92;;;11.80;99.90;;;;;;4986906;28;20453;-75
2023/04/21 08:30:37;;;;;;;53.72;42.72;;;11.80;99.90;;;;;;4979372;28;20469;-75
2023/04/21 08:33:03;;;;;;;48.22;41.38;;;11.80;99.90;;;;;;4988500;28;20037;-75
2023/04/21 08:35:30;;;;;;;52.00;43.50;;;11.90;99.90;;;;;;4972752;28;20041;-75
2023/04/21 08:37:56;;;;;;;47.63;39.45;;;11.90;99.90;;;;;;4996655;28;20033;-75
2023/04/21 08:40:34;;;;;;;45.00;38.35;;;12.00;99.90;;;;;;4987921;28;20033;-76
2023/04/21 08:43:01;;;;;;;49.15;40.33;;;12.00;99.90;;;;;;4986011;28;20049;-75
2023/04/21 08:45:27;;;;;;;45.03;37.95;;;12.20;99.90;;;;;;4967913;28;20041;-77
2023/04/21 08:47:58;;;;;;;44.80;37.25;;;12.30;99.90;;;;;;4988731;28;20033;-76
2023/04/21 08:50:27;;;;;;;51.72;40.45;;;12.40;99.90;;;;;;4979176;28;20041;-75
2023/04/21 08:52:55;;;;;;;47.95;40.17;;;12.50;99.90;;;;;;4986960;28;20048;-75
2023/04/21 08:55:28;;;;;;;49.05;41.45;;;12.60;99.90;;;;;;4995439;28;20022;-75
2023/04/21 08:57:54;;;;;;;48.58;41.47;;;12.70;99.90;;;;;;5032992;28;20085;-76
2023/04/21 09:00:21;;;;;;;49.45;40.28;;;12.80;99.90;;;;;;4988097;28;20025;-76
2023/04/21 09:02:58;;;;;;;45.67;38.65;;;12.80;99.90;;;;;;4990971;28;20017;-78
2023/04/21 09:05:29;;;;;;;46.58;39.38;;;12.90;99.90;;;;;;4970681;28;20060;-76
2023/04/21 09:08:10;;;;;;;44.88;36.05;;;13.00;99.90;;;;;;4985335;28;20044;-76
2023/04/21 09:10:48;;;;;;;46.63;38.17;;;13.00;99.90;;;;;;4979842;28;20341;-76
2023/04/21 09:13:19;;;;;;;42.95;38.17;;;13.20;99.90;;;;;;4986845;28;20564;-76
2023/04/21 09:15:48;;;;;;;46.47;36.30;;;13.30;99.90;;;;;;4987394;28;20036;-75
2023/04/21 09:18:17;;;;;;;42.80;36.05;;;13.50;99.90;;;;;;4978304;28;20041;-75
2023/04/21 09:20:45;;;;;;;39.38;34.70;;;13.40;99.90;;;;;;4988056;28;20021;-75
2023/04/21 09:23:12;;;;;;;40.58;34.60;;;13.30;99.90;;;;;;4970064;28;20037;-75
2023/04/21 09:25:40;;;;;;;43.38;36.30;;;13.30;99.90;;;;;;4984772;28;20048;-75
2023/04/21 09:28:11;;;;;;;39.72;34.00;;;13.30;99.90;;;;;;4986570;28;20033;-75
2023/04/21 09:30:42;;;;;;;41.75;35.92;;;13.30;99.90;;;;;;4978971;28;20126;-75
2023/04/21 09:33:16;;;;;;;41.55;35.97;;;13.40;99.90;;;;;;4986483;28;22674;-75
2023/04/21 09:35:42;;;;;;;39.92;34.90;;;13.40;99.90;;;;;;5024412;28;20041;-75
2023/04/21 09:38:12;;;;;;;38.60;33.17;;;13.30;99.90;;;;;;4995156;28;20049;-75
2023/04/21 09:40:39;;;;;;;35.78;30.52;;;13.30;99.90;;;;;;4955685;28;20028;-79
2023/04/21 09:43:06;;;;;;;38.72;33.72;;;13.40;99.90;;;;;;4983395;28;20033;-78
2023/04/21 09:45:33;;;;;;;40.95;36.05;;;13.40;99.90;;;;;;4984118;28;20072;-77
2023/04/21 09:48:00;;;;;;;37.72;33.65;;;13.40;99.90;;;;;;4968987;28;20595;-79
2023/04/21 09:50:28;;;;;;;41.08;34.10;;;13.50;99.90;;;;;;4974973;28;20428;-74
2023/04/21 09:52:55;;;;;;;38.38;33.63;;;13.60;99.90;;;;;;4987082;28;20045;-74
2023/04/21 09:55:26;;;;;;;35.45;31.65;;;13.60;99.90;;;;;;4985913;28;20033;-74
2023/04/21 09:57:58;;;;;;;37.30;33.33;;;13.70;99.90;;;;;;4987963;28;20028;-74
2023/04/21 10:00:28;;;;;;;37.53;33.42;;;13.90;99.90;;;;;;4978815;28;20045;-75
2023/04/21 10:02:57;;;;;;;33.25;28.40;;;14.00;99.90;;;;;;4993200;28;20053;-76
2023/04/21 10:05:23;;;;;;;35.22;31.50;;;14.10;99.90;;;;;;4990179;28;20816;-75
2023/04/21 10:07:50;;;;;;;34.30;30.60;;;14.20;99.90;;;;;;4991351;28;20129;-75
2023/04/21 10:10:23;;;;;;;31.65;28.25;;;14.30;99.90;;;;;;4961289;28;22126;-74
2023/04/21 10:12:51;;;;;;;36.30;32.35;;;14.30;99.90;;;;;;4985501;28;20026;-75
2023/04/21 10:15:32;;;;;;;35.35;30.63;;;14.20;99.90;;;;;;4988318;28;20453;-74
2023/04/21 10:18:18;;;;;;;34.28;30.60;;;14.30;99.90;;;;;;4988317;28;20033;-75
2023/04/21 10:20:52;;;;;;;35.08;28.83;;;14.40;99.90;;;;;;4978762;28;20052;-75
2023/04/21 10:23:53;;;;;;;35.00;29.42;;;14.50;99.90;;;;;;4993189;28;20038;-75
2023/04/21 10:26:33;;;;;;;36.63;30.08;;;14.60;99.90;;;;;;4993586;28;20265;-75
2023/04/21 10:29:01;;;;;;;34.88;28.70;;;14.70;99.90;;;;;;4989063;28;20034;-75
2023/04/21 10:31:34;;;;;;;33.17;29.25;;;14.70;99.90;;;;;;4977387;28;20621;-75
2023/04/21 10:34:07;;;;;;;32.40;27.92;;;14.80;99.90;;;;;;4968387;28;20044;-74
2023/04/21 10:36:34;;;;;;;31.95;27.38;;;14.90;99.90;;;;;;4984704;28;20033;-78
2023/04/21 10:39:02;;;;;;;38.45;31.40;;;15.00;99.90;;;;;;4983274;28;20052;-79
2023/04/21 10:41:30;;;;;;;31.33;28.00;;;15.10;99.90;;;;;;4977189;28;20056;-77
2023/04/21 10:44:12;;;;;;;30.35;26.63;;;15.30;99.90;;;;;;4988823;28;20048;-77
2023/04/21 10:46:40;;;;;;;39.05;29.05;;;15.50;99.90;;;;;;4978155;28;20457;-77
2023/04/21 10:49:17;;;;;;;27.15;24.23;;;15.90;99.90;;;;;;4989058;28;20037;-79
2023/04/21 10:52:06;;;;;;;24.70;21.77;;;16.20;99.90;;;;;;4960792;28;20080;-78
2023/04/21 10:54:58;;;;;;;28.02;25.08;;;16.50;99.90;;;;;;4986162;28;20040;-80
2023/04/21 10:57:25;;;;;;;24.73;22.08;;;16.60;99.90;;;;;;4981568;28;22217;-75
2023/04/21 10:59:52;;;;;;;25.13;22.42;;;16.50;99.90;;;;;;4978016;28;20048;-75
2023/04/21 11:02:20;;;;;;;29.52;24.67;;;16.40;99.90;;;;;;4971729;28;20036;-75
2023/04/21 11:04:50;;;;;;;28.17;25.17;;;16.40;99.90;;;;;;4976560;28;20033;-75
2023/04/21 11:07:24;;;;;;;22.70;20.08;;;16.20;99.90;;;;;;4992991;28;20038;-75
2023/04/21 11:10:05;;;;;;;31.40;25.80;;;16.00;99.90;;;;;;4981455;28;20033;-75
2023/04/21 11:12:39;;;;;;;24.30;21.20;;;15.90;99.90;;;;;;5002081;28;20060;-75
2023/04/21 11:15:11;;;;;;;27.95;24.10;;;15.70;99.90;;;;;;4985833;28;20550;-76
2023/04/21 11:17:42;;;;;;;23.67;21.15;;;15.60;99.90;;;;;;4986693;28;20497;-76
2023/04/21 11:20:08;;;;;;;24.35;21.42;;;15.60;99.90;;;;;;4983580;28;20731;-77
2023/04/21 11:22:36;;;;;;;25.88;22.00;;;15.50;99.90;;;;;;4995123;28;20045;-75
2023/04/21 11:25:03;;;;;;;26.75;23.60;;;15.60;99.90;;;;;;4984231;28;20060;-75
2023/04/21 11:27:30;;;;;;;29.15;23.67;;;15.60;99.90;;;;;;4994708;28;20029;-75
2023/04/21 11:29:56;;;;;;;29.80;25.88;;;15.70;99.90;;;;;;4980690;28;20033;-75
2023/04/21 11:32:23;;;;;;;24.70;21.13;;;15.70;99.90;;;;;;4970813;28;20404;-76
2023/04/21 11:34:50;;;;;;;33.17;23.17;;;15.90;99.90;;;;;;4991088;28;20038;-75
2023/04/21 11:37:25;;;;;;;23.30;19.38;;;16.20;99.90;;;;;;4972000;28;20034;-76
2023/04/21 11:39:59;;;;;;;28.52;23.83;;;16.70;99.90;;;;;;4983781;28;23400;-75
2023/04/21 11:42:25;;;;;;;23.25;20.02;;;17.00;99.90;;;;;;4997900;28;20040;-75
2023/04/21 11:44:56;;;;;;;26.80;22.15;;;17.10;99.90;;;;;;4998122;28;20025;-75
2023/04/21 11:47:24;;;;;;;25.45;21.88;;;17.20;99.90;;;;;;4993069;28;20038;-75
2023/04/21 11:49:55;;;;;;;25.85;23.08;;;17.20;99.90;;;;;;4983061;28;20057;-75
2023/04/21 11:52:29;;;;;;;24.10;19.95;;;17.40;99.90;;;;;;4990620;28;20042;-76
2023/04/21 11:54:58;;;;;;;28.27;24.63;;;17.60;99.90;;;;;;4990110;28;20030;-75
2023/04/21 11:57:26;;;;;;;28.48;25.10;;;17.90;99.90;;;;;;4990764;28;20044;-75
2023/04/21 11:59:53;;;;;;;24.65;21.95;;;18.30;99.90;;;;;;4985597;28;20029;-76
2023/04/21 12:02:22;;;;;;;23.15;19.58;;;18.20;99.90;;;;;;4996798;28;20021;-75
2023/04/21 12:04:59;;;;;;;25.27;21.67;;;18.10;99.90;;;;;;4998975;28;20037;-76
2023/04/21 12:07:26;;;;;;;27.33;23.10;;;17.90;99.90;;;;;;4992693;28;20068;-76
2023/04/21 12:09:52;;;;;;;26.58;21.48;;;17.60;99.90;;;;;;4984640;28;20037;-75
2023/04/21 12:12:21;;;;;;;26.05;21.20;;;17.30;99.90;;;;;;4988592;28;20025;-75
2023/04/21 12:14:50;;;;;;;25.40;21.63;;;17.30;99.90;;;;;;4990081;28;20017;-75
2023/04/21 12:17:17;;;;;;;23.20;19.13;;;17.10;99.90;;;;;;4987055;28;20033;-75
2023/04/21 12:19:43;;;;;;;19.52;17.00;;;16.90;99.90;;;;;;4985883;28;20041;-75
2023/04/21 12:22:17;;;;;;;28.30;24.30;;;16.80;99.90;;;;;;4995904;28;20036;-72
2023/04/21 12:24:44;;;;;;;28.83;23.27;;;16.70;99.90;;;;;;4998049;28;20810;-75
2023/04/21 12:27:11;;;;;;;26.48;21.73;;;16.40;99.90;;;;;;4992614;28;20713;-75
2023/04/21 12:29:39;;;;;;;20.75;18.52;;;16.20;99.90;;;;;;4983121;28;20389;-74
2023/04/21 12:32:07;;;;;;;22.90;20.00;;;16.00;99.90;;;;;;4988124;28;20041;-74
2023/04/21 12:34:34;;;;;;;24.70;22.00;;;15.90;99.90;;;;;;4989642;28;20503;-74
2023/04/21 12:37:01;;;;;;;29.75;24.95;;;16.20;99.90;;;;;;4971254;28;20644;-74